createdAt,value
2022-09-14T00:01:30.164Z,2.60
2022-09-14T00:03:59.794Z,3.33
2022-09-14T00:06:27.981Z,3.25
2022-09-14T00:08:58.051Z,6.85
2022-09-14T00:11:27.548Z,7.10
2022-09-14T00:13:56.086Z,4.70
2022-09-14T00:16:34.745Z,1.73
2022-09-14T00:19:06.142Z,3.20
2022-09-14T00:21:35.527Z,3.55
2022-09-14T00:26:30.300Z,4.10
2022-09-14T00:28:59.810Z,4.25
2022-09-14T00:31:27.014Z,2.10
2022-09-14T00:33:54.108Z,3.25
2022-09-14T00:36:24.970Z,7.90
2022-09-14T00:38:53.144Z,1.88
2022-09-14T00:41:22.939Z,6.57
2022-09-14T00:44:01.890Z,3.22
2022-09-14T00:46:31.261Z,3.75
2022-09-14T00:51:31.709Z,2.40
2022-09-14T00:54:01.117Z,3.50
2022-09-14T00:56:28.318Z,6.07
2022-09-14T00:58:58.447Z,2.92
2022-09-14T01:01:26.438Z,2.28
2022-09-14T01:03:53.590Z,5.82
2022-09-14T01:06:44.449Z,7.13
2022-09-14T01:09:38.922Z,7.15
2022-09-14T01:12:29.758Z,1.25
2022-09-14T01:15:14.800Z,5.55
2022-09-14T01:17:58.707Z,5.75
2022-09-14T01:20:40.010Z,5.35
2022-09-14T01:23:35.608Z,6.63
2022-09-14T01:26:21.321Z,4.80
2022-09-14T01:29:01.286Z,5.05
2022-09-14T01:31:34.979Z,7.25
2022-09-14T01:34:07.892Z,2.58
2022-09-14T01:36:38.374Z,2.38
2022-09-14T01:39:07.233Z,7.50
2022-09-14T01:41:35.312Z,2.53
2022-09-14T01:44:26.274Z,2.75
2022-09-14T01:46:57.008Z,0.95
2022-09-14T01:49:32.169Z,5.75
2022-09-14T01:52:09.059Z,1.50
2022-09-14T01:54:48.295Z,4.22
2022-09-14T02:00:01.768Z,4.67
2022-09-14T02:02:40.177Z,5.15
2022-09-14T02:05:23.760Z,5.45
2022-09-14T02:07:50.917Z,7.32
2022-09-14T02:10:18.233Z,1.85
2022-09-14T02:12:45.847Z,7.72
2022-09-14T02:15:14.592Z,3.40
2022-09-14T02:17:42.532Z,5.20
2022-09-14T02:20:34.198Z,6.93
2022-09-14T02:23:01.319Z,3.33
2022-09-14T02:25:28.410Z,3.08
2022-09-14T02:27:55.559Z,2.42
2022-09-14T02:30:22.910Z,3.40
2022-09-14T02:33:13.245Z,6.40
2022-09-14T02:35:55.637Z,6.20
2022-09-14T02:38:40.565Z,6.95
2022-09-14T02:41:17.701Z,9.55
2022-09-14T02:43:54.753Z,2.50
2022-09-14T02:46:42.793Z,3.08
2022-09-14T02:49:28.233Z,3.95
2022-09-14T02:52:20.001Z,4.45
2022-09-14T02:54:57.132Z,4.13
2022-09-14T02:57:24.557Z,4.45
2022-09-14T02:59:54.155Z,3.80
2022-09-14T03:02:22.088Z,4.00
2022-09-14T03:04:49.308Z,6.93
2022-09-14T03:07:16.398Z,8.80
2022-09-14T03:09:43.467Z,13.55
2022-09-14T03:12:10.520Z,2.38
2022-09-14T03:14:37.583Z,23.52
2022-09-14T03:17:04.605Z,4.75
2022-09-14T03:19:31.647Z,4.18
2022-09-14T03:21:58.710Z,2.63
2022-09-14T03:24:25.754Z,4.40
2022-09-14T03:26:52.852Z,2.45
2022-09-14T03:29:19.968Z,2.30
2022-09-14T03:31:47.012Z,4.97
2022-09-14T03:34:14.341Z,5.32
2022-09-14T03:36:41.415Z,3.88
2022-09-14T03:39:09.137Z,1.83
2022-09-14T03:41:36.175Z,2.35
2022-09-14T03:44:03.265Z,7.93
2022-09-14T03:46:30.338Z,4.43
2022-09-14T03:48:57.471Z,4.65
2022-09-14T03:51:24.567Z,2.83
2022-09-14T03:53:52.050Z,5.93
2022-09-14T03:56:21.533Z,3.35
2022-09-14T03:58:49.689Z,3.50
2022-09-14T04:01:19.360Z,2.35
2022-09-14T04:03:47.593Z,5.22
2022-09-14T04:06:16.023Z,3.47
2022-09-14T04:08:45.003Z,3.20
2022-09-14T04:11:14.140Z,5.13
2022-09-14T04:13:41.780Z,5.85
2022-09-14T04:16:09.172Z,3.55
2022-09-14T04:18:36.484Z,6.38
2022-09-14T04:21:08.570Z,5.45
2022-09-14T04:23:56.639Z,1.95
2022-09-14T04:26:27.097Z,1.77
2022-09-14T04:28:56.496Z,3.22
2022-09-14T04:33:51.343Z,3.92
2022-09-14T04:36:21.291Z,3.22
2022-09-14T04:38:48.665Z,3.40
2022-09-14T04:41:18.217Z,6.85
2022-09-14T04:43:46.580Z,3.33
2022-09-14T04:46:16.459Z,2.22
2022-09-14T04:48:44.369Z,3.97
2022-09-14T04:51:14.310Z,2.03
2022-09-14T04:53:41.444Z,3.83
2022-09-14T04:56:10.448Z,4.07
2022-09-14T04:58:41.305Z,4.68
2022-09-14T05:01:11.755Z,2.97
2022-09-14T05:03:39.587Z,3.08
2022-09-14T05:06:10.706Z,1.65
2022-09-14T05:08:38.674Z,1.05
2022-09-14T05:11:12.162Z,1.08
2022-09-14T05:13:39.253Z,3.30
2022-09-14T05:16:07.800Z,1.40
2022-09-14T05:18:35.301Z,2.13
2022-09-14T05:21:08.684Z,1.70
2022-09-14T05:23:36.645Z,2.67
2022-09-14T05:26:05.057Z,1.63
2022-09-14T05:28:33.001Z,2.63
2022-09-14T05:31:03.465Z,1.83
2022-09-14T05:33:30.556Z,3.33
2022-09-14T05:36:06.381Z,1.50
2022-09-14T05:38:36.425Z,2.60
2022-09-14T05:41:05.024Z,4.50
2022-09-14T05:43:32.494Z,2.07
2022-09-14T05:46:07.535Z,1.75
2022-09-14T05:48:36.362Z,1.40
2022-09-14T05:51:07.261Z,1.90
2022-09-14T05:53:34.617Z,1.25
2022-09-14T05:56:09.955Z,2.88
2022-09-14T05:58:38.234Z,1.48
2022-09-14T06:01:16.331Z,3.50
2022-09-14T06:03:44.272Z,3.50
2022-09-14T06:06:13.186Z,2.30
2022-09-14T06:08:40.776Z,3.83
2022-09-14T06:11:12.200Z,2.45
2022-09-14T06:13:39.539Z,1.88
2022-09-14T06:16:12.549Z,1.85
2022-09-14T06:18:41.385Z,2.47
2022-09-14T06:21:10.512Z,2.10
2022-09-14T06:23:38.237Z,5.10
2022-09-14T06:26:05.883Z,2.78
2022-09-14T06:28:34.396Z,2.75
2022-09-14T06:31:07.478Z,3.40
2022-09-14T06:33:35.286Z,2.08
2022-09-14T06:36:09.597Z,4.38
2022-09-14T06:38:36.701Z,4.40
2022-09-14T06:41:06.851Z,4.07
2022-09-14T06:43:37.177Z,2.38
2022-09-14T06:46:12.301Z,4.20
2022-09-14T06:48:45.667Z,8.55
2022-09-14T06:51:15.796Z,7.65
2022-09-14T06:53:43.590Z,5.75
2022-09-14T06:56:11.163Z,9.13
2022-09-14T06:58:38.403Z,9.75
2022-09-14T07:01:08.719Z,5.63
2022-09-14T07:03:37.353Z,9.90
2022-09-14T07:06:06.475Z,6.05
2022-09-14T07:08:34.622Z,7.88
2022-09-14T07:11:03.052Z,8.55
2022-09-14T07:13:31.802Z,8.47
2022-09-14T07:15:59.217Z,10.43
2022-09-14T07:18:32.744Z,10.63
2022-09-14T07:21:07.037Z,13.70
2022-09-14T07:23:36.541Z,10.40
2022-09-14T07:26:07.645Z,11.02
2022-09-14T07:28:35.894Z,15.52
2022-09-14T07:31:04.081Z,16.30
2022-09-14T07:33:31.261Z,17.60
2022-09-14T07:36:09.661Z,17.65
2022-09-14T07:38:51.663Z,18.43
2022-09-14T07:41:24.816Z,16.95
2022-09-14T07:43:54.119Z,19.80
2022-09-14T07:48:49.156Z,17.77
2022-09-14T07:51:16.532Z,16.17
2022-09-14T07:53:43.597Z,18.73
2022-09-14T07:56:12.260Z,19.65
2022-09-14T07:58:39.706Z,19.00
2022-09-14T08:01:12.547Z,16.17
2022-09-14T08:03:42.013Z,16.75
2022-09-14T08:06:10.793Z,19.70
2022-09-14T08:08:40.257Z,19.50
2022-09-14T08:11:15.845Z,21.73
2022-09-14T08:13:45.343Z,19.55
2022-09-14T08:16:13.282Z,14.45
2022-09-14T08:18:40.502Z,17.40
2022-09-14T08:21:13.456Z,16.13
2022-09-14T08:23:41.593Z,18.40
2022-09-14T08:26:13.605Z,15.93
2022-09-14T08:28:41.686Z,15.95
2022-09-14T08:31:11.683Z,17.45
2022-09-14T08:33:42.434Z,15.27
2022-09-14T08:36:11.400Z,18.90
2022-09-14T08:38:38.741Z,15.20
2022-09-14T08:41:28.662Z,15.00
2022-09-14T08:44:06.319Z,16.10
2022-09-14T08:46:44.208Z,15.98
2022-09-14T08:49:19.411Z,14.73
2022-09-14T08:51:46.549Z,17.33
2022-09-14T08:54:13.643Z,16.25
2022-09-14T08:56:45.297Z,13.93
2022-09-14T08:59:38.367Z,14.85
2022-09-14T09:02:20.503Z,14.90
2022-09-14T09:05:00.094Z,20.45
2022-09-14T09:07:34.947Z,14.15
2022-09-14T09:10:05.485Z,20.40
2022-09-14T09:12:47.666Z,15.90
2022-09-14T09:15:21.105Z,16.73
2022-09-14T09:17:53.529Z,17.70
2022-09-14T09:20:24.096Z,17.98
2022-09-14T09:23:11.375Z,15.77
2022-09-14T09:25:47.469Z,13.38
2022-09-14T09:28:16.407Z,13.48
2022-09-14T09:30:45.012Z,13.05
2022-09-14T09:33:16.870Z,12.43
2022-09-14T09:36:07.025Z,15.05
2022-09-14T09:38:34.851Z,15.23
2022-09-14T09:41:12.889Z,12.77
2022-09-14T09:43:59.198Z,14.65
2022-09-14T09:46:29.939Z,12.43
2022-09-14T09:48:57.191Z,13.98
2022-09-14T09:51:24.467Z,16.00
2022-09-14T09:53:52.823Z,9.50
2022-09-14T09:56:26.296Z,16.27
2022-09-14T09:58:53.711Z,12.43
2022-09-14T10:01:31.167Z,11.57
2022-09-14T10:04:04.369Z,11.63
2022-09-14T10:06:32.970Z,17.98
2022-09-14T10:09:00.280Z,12.57
2022-09-14T10:11:38.261Z,16.67
2022-09-14T10:14:19.668Z,15.35
2022-09-14T10:16:47.525Z,13.32
2022-09-14T10:19:20.637Z,9.32
2022-09-14T10:22:17.491Z,16.05
2022-09-14T10:24:57.331Z,14.95
2022-09-14T10:27:39.718Z,11.73
2022-09-14T10:30:14.008Z,10.98
2022-09-14T10:32:46.454Z,11.05
2022-09-14T10:35:15.539Z,8.50
2022-09-14T10:38:15.889Z,7.63
2022-09-14T10:40:48.441Z,8.25
2022-09-14T10:43:33.309Z,7.57
2022-09-14T10:46:04.524Z,6.40
2022-09-14T10:49:03.632Z,10.52
2022-09-14T10:54:34.316Z,9.10
2022-09-14T10:57:05.198Z,12.13
2022-09-14T10:59:36.405Z,11.65
2022-09-14T11:02:22.604Z,11.40
2022-09-14T11:05:44.097Z,13.75
2022-09-14T11:08:22.972Z,12.20
2022-09-14T11:11:22.751Z,11.45
2022-09-14T11:14:12.636Z,12.98
2022-09-14T11:17:07.067Z,11.00
2022-09-14T11:19:52.879Z,13.02
2022-09-14T11:22:38.215Z,10.80
2022-09-14T11:25:14.220Z,13.20
2022-09-14T11:27:48.867Z,11.77
2022-09-14T11:30:19.736Z,10.65
2022-09-14T11:33:16.293Z,11.75
2022-09-14T11:35:51.826Z,10.95
2022-09-14T11:38:21.595Z,12.07
2022-09-14T11:41:13.457Z,8.88
2022-09-14T11:43:55.942Z,6.78
2022-09-14T11:46:50.686Z,9.23
2022-09-14T11:49:20.583Z,11.63
2022-09-14T11:52:02.388Z,10.60
2022-09-14T11:54:29.457Z,10.68
2022-09-14T11:57:02.979Z,9.05
2022-09-14T11:59:42.209Z,12.50
2022-09-14T12:02:27.850Z,8.27
2022-09-14T12:05:07.365Z,11.23
2022-09-14T12:07:42.215Z,11.00
2022-09-14T12:10:15.344Z,15.02
2022-09-14T12:12:48.977Z,11.43
2022-09-14T12:15:31.526Z,9.27
2022-09-14T12:18:07.742Z,10.68
2022-09-14T12:20:43.385Z,12.35
2022-09-14T12:23:29.090Z,14.90
2022-09-14T12:26:30.269Z,16.08
2022-09-14T12:29:04.331Z,15.73
2022-09-14T12:31:59.488Z,13.80
2022-09-14T12:34:31.694Z,13.18
2022-09-14T12:37:02.345Z,11.73
2022-09-14T12:39:34.681Z,18.42
2022-09-14T12:42:25.257Z,14.05
2022-09-14T12:44:52.905Z,13.27
2022-09-14T12:47:25.749Z,14.55
2022-09-14T12:49:57.821Z,14.38
2022-09-14T12:52:39.079Z,15.60
2022-09-14T12:55:34.594Z,10.90
2022-09-14T12:58:19.916Z,13.32
2022-09-14T13:01:14.890Z,10.50
2022-09-14T13:03:54.253Z,13.60
2022-09-14T13:06:23.455Z,12.55
2022-09-14T13:11:24.505Z,11.25
2022-09-14T13:13:52.057Z,13.35
2022-09-14T13:16:29.687Z,8.68
2022-09-14T13:19:03.203Z,12.20
2022-09-14T13:21:30.378Z,11.38
2022-09-14T13:23:57.729Z,13.80
2022-09-14T13:26:30.109Z,13.27
2022-09-14T13:29:00.301Z,7.90
2022-09-14T13:31:33.394Z,10.07
2022-09-14T13:34:02.814Z,8.00
2022-09-14T13:36:33.770Z,6.65
2022-09-14T13:39:03.113Z,8.73
2022-09-14T13:41:31.827Z,9.45
2022-09-14T13:43:59.746Z,12.93
2022-09-14T13:46:27.887Z,7.22
2022-09-14T13:48:55.880Z,9.88
2022-09-14T13:51:28.283Z,7.97
2022-09-14T13:53:57.637Z,12.15
2022-09-14T13:56:33.613Z,10.00
2022-09-14T13:59:12.618Z,7.65
2022-09-14T14:01:42.545Z,4.60
2022-09-14T14:04:39.297Z,6.25
2022-09-14T14:07:31.545Z,12.45
2022-09-14T14:09:59.778Z,7.90
2022-09-14T14:12:36.880Z,7.68
2022-09-14T14:15:25.489Z,4.75
2022-09-14T14:17:53.557Z,7.00
2022-09-14T14:20:26.793Z,5.22
2022-09-14T14:23:13.261Z,8.02
2022-09-14T14:25:46.254Z,5.18
2022-09-14T14:28:15.984Z,4.35
2022-09-14T14:30:43.453Z,7.20
2022-09-14T14:33:18.580Z,9.30
2022-09-14T14:35:51.631Z,13.63
2022-09-14T14:38:18.831Z,7.97
2022-09-14T14:40:46.798Z,18.85
2022-09-14T14:43:18.528Z,6.28
2022-09-14T14:45:45.695Z,7.63
2022-09-14T14:48:13.410Z,8.43
2022-09-14T14:50:40.479Z,9.93
2022-09-14T14:53:07.711Z,6.35
2022-09-14T14:55:35.858Z,4.22
2022-09-14T14:58:07.049Z,8.40
2022-09-14T15:00:35.813Z,6.60
2022-09-14T15:03:03.053Z,5.68
2022-09-14T15:05:31.021Z,4.22
2022-09-14T15:07:58.244Z,5.63
2022-09-14T15:10:27.566Z,7.57
2022-09-14T15:12:54.823Z,5.93
2022-09-14T15:15:24.831Z,4.80
2022-09-14T15:17:53.112Z,8.98
2022-09-14T15:20:20.841Z,6.40
2022-09-14T15:22:48.734Z,7.88
2022-09-14T15:25:17.770Z,7.57
2022-09-14T15:27:45.259Z,4.63
2022-09-14T15:30:13.440Z,7.00
2022-09-14T15:32:41.195Z,4.80
2022-09-14T15:35:12.406Z,7.95
2022-09-14T15:37:39.662Z,5.63
2022-09-14T15:40:07.254Z,8.70
2022-09-14T15:42:34.365Z,32.17
2022-09-14T15:45:01.442Z,4.50
2022-09-14T15:47:30.730Z,8.63
2022-09-14T15:50:01.228Z,8.68
2022-09-14T15:52:28.347Z,2.92
2022-09-14T15:54:55.482Z,2.58
2022-09-14T15:57:22.528Z,4.88
2022-09-14T15:59:49.608Z,2.60
2022-09-14T16:02:20.019Z,7.63
2022-09-14T16:04:47.151Z,4.65
2022-09-14T16:07:14.308Z,9.25
2022-09-14T16:09:42.199Z,5.22
2022-09-14T16:12:10.872Z,3.88
2022-09-14T16:14:38.187Z,8.07
2022-09-14T16:17:05.762Z,4.97
2022-09-14T16:19:32.943Z,7.32
2022-09-14T16:22:01.356Z,8.60
2022-09-14T16:24:28.871Z,4.88
2022-09-14T16:26:57.746Z,2.47
2022-09-14T16:29:25.422Z,4.05
2022-09-14T16:31:52.977Z,6.30
2022-09-14T16:34:26.646Z,3.40
2022-09-14T16:36:54.265Z,3.40
2022-09-14T16:39:24.184Z,3.42
2022-09-14T16:41:52.116Z,2.55
2022-09-14T16:44:21.903Z,6.18
2022-09-14T16:46:49.554Z,4.63
2022-09-14T16:49:17.647Z,4.72
2022-09-14T16:51:45.201Z,6.82
2022-09-14T16:54:17.593Z,6.15
2022-09-14T16:56:45.233Z,5.43
2022-09-14T16:59:12.966Z,5.32
2022-09-14T17:01:42.890Z,5.45
2022-09-14T17:04:13.784Z,5.00
2022-09-14T17:06:44.129Z,5.85
2022-09-14T17:09:14.491Z,5.13
2022-09-14T17:11:41.903Z,4.95
2022-09-14T17:14:16.500Z,5.00
2022-09-14T17:16:43.645Z,4.07
2022-09-14T17:19:11.748Z,6.50
2022-09-14T17:21:41.575Z,3.58
2022-09-14T17:24:09.764Z,2.70
2022-09-14T17:26:37.509Z,4.05
2022-09-14T17:29:06.586Z,3.50
2022-09-14T17:31:37.828Z,3.65
2022-09-14T17:34:07.006Z,5.10
2022-09-14T17:36:34.505Z,3.33
2022-09-14T17:39:05.064Z,3.78
2022-09-14T17:41:37.256Z,3.05
2022-09-14T17:44:06.070Z,2.53
2022-09-14T17:46:33.719Z,2.63
2022-09-14T17:49:03.977Z,3.85
2022-09-14T17:51:32.489Z,2.90
2022-09-14T17:54:01.103Z,3.17
2022-09-14T17:56:29.047Z,3.17
2022-09-14T17:59:05.493Z,6.32
2022-09-14T18:01:33.614Z,2.65
2022-09-14T18:04:04.324Z,2.33
2022-09-14T18:06:34.587Z,5.00
2022-09-14T18:09:06.934Z,4.88
2022-09-14T18:11:35.016Z,4.47
2022-09-14T18:14:02.707Z,4.53
2022-09-14T18:16:29.875Z,4.03
2022-09-14T18:18:57.621Z,5.63
2022-09-14T18:21:26.319Z,5.18
2022-09-14T18:23:54.662Z,4.13
2022-09-14T18:26:23.229Z,5.57
2022-09-14T18:28:53.292Z,5.73
2022-09-14T18:31:20.522Z,5.95
2022-09-14T18:33:53.391Z,7.43
2022-09-14T18:36:21.675Z,3.78
2022-09-14T18:38:49.596Z,3.40
2022-09-14T18:41:17.597Z,4.50
2022-09-14T18:43:46.991Z,3.50
2022-09-14T18:46:17.352Z,4.80
2022-09-14T18:48:44.639Z,4.60
2022-09-14T18:51:13.353Z,2.47
2022-09-14T18:53:41.006Z,4.60
2022-09-14T18:56:11.615Z,2.28
2022-09-14T18:58:41.543Z,3.72
2022-09-14T19:01:10.532Z,4.32
2022-09-14T19:03:39.412Z,2.05
2022-09-14T19:06:09.030Z,3.90
2022-09-14T19:08:36.757Z,2.97
2022-09-14T19:11:09.478Z,4.70
2022-09-14T19:13:37.316Z,2.78
2022-09-14T19:16:08.703Z,3.00
2022-09-14T19:18:36.439Z,4.45
2022-09-14T19:21:07.120Z,2.40
2022-09-14T19:23:36.354Z,3.00
2022-09-14T19:26:06.096Z,5.03
2022-09-14T19:28:33.844Z,3.53
2022-09-14T19:31:06.160Z,3.25
2022-09-14T19:33:33.459Z,2.90
2022-09-14T19:36:14.859Z,2.80
2022-09-14T19:38:42.431Z,3.20
2022-09-14T19:41:09.847Z,3.53
2022-09-14T19:43:37.035Z,2.72
2022-09-14T19:46:09.923Z,3.78
2022-09-14T19:48:37.593Z,5.75
2022-09-14T19:51:07.486Z,1.63
2022-09-14T19:53:36.282Z,2.53
2022-09-14T19:56:06.475Z,3.40
2022-09-14T19:58:39.478Z,2.53
2022-09-14T20:01:07.613Z,3.13
2022-09-14T20:03:36.726Z,1.27
2022-09-14T20:06:10.257Z,1.83
2022-09-14T20:08:37.895Z,3.03
2022-09-14T20:11:10.072Z,1.63
2022-09-14T20:13:38.268Z,1.60
2022-09-14T20:16:12.472Z,2.70
2022-09-14T20:18:43.724Z,4.97
2022-09-14T20:21:12.699Z,3.92
2022-09-14T20:23:57.997Z,10.02
2022-09-14T20:26:29.192Z,3.30
2022-09-14T20:28:59.919Z,2.03
2022-09-14T20:31:28.494Z,2.20
2022-09-14T20:33:56.668Z,2.25
2022-09-14T20:36:28.610Z,2.10
2022-09-14T20:38:57.737Z,1.20
2022-09-14T20:41:30.937Z,11.43
2022-09-14T20:43:58.067Z,3.78
2022-09-14T20:46:28.221Z,3.10
2022-09-14T20:48:55.520Z,6.57
2022-09-14T20:51:24.982Z,3.70
2022-09-14T20:56:21.871Z,2.67
2022-09-14T20:58:52.447Z,2.55
2022-09-14T21:01:21.230Z,2.97
2022-09-14T21:03:50.155Z,2.10
2022-09-14T21:06:20.497Z,3.38
2022-09-14T21:08:47.862Z,6.03
2022-09-14T21:11:17.462Z,3.08
2022-09-14T21:13:45.069Z,4.32
2022-09-14T21:16:26.206Z,2.40
2022-09-14T21:19:07.789Z,2.08
2022-09-14T21:21:35.034Z,2.60
2022-09-14T21:24:02.894Z,3.35
2022-09-14T21:26:33.810Z,2.58
2022-09-14T21:29:05.372Z,3.35
2022-09-14T21:31:34.659Z,2.47
2022-09-14T21:36:36.505Z,4.57
2022-09-14T21:39:08.389Z,2.45
2022-09-14T21:41:37.215Z,3.78
2022-09-14T21:44:05.096Z,2.17
2022-09-14T21:46:32.563Z,7.88
2022-09-14T21:49:00.095Z,2.20
2022-09-14T21:51:30.676Z,3.17
2022-09-14T21:54:00.224Z,6.88
2022-09-14T21:56:29.897Z,5.00
2022-09-14T21:59:00.012Z,2.38
2022-09-14T22:01:28.316Z,3.08
2022-09-14T22:03:56.879Z,3.88
2022-09-14T22:06:28.053Z,2.13
2022-09-14T22:08:57.426Z,1.80
2022-09-14T22:14:02.303Z,2.65
2022-09-14T22:16:32.965Z,1.48
2022-09-14T22:19:03.938Z,2.15
2022-09-14T22:21:33.275Z,3.53
2022-09-14T22:26:31.274Z,4.95
2022-09-14T22:28:59.245Z,5.30
2022-09-14T22:31:28.621Z,4.80
2022-09-14T22:36:23.773Z,3.22
2022-09-14T22:38:51.058Z,2.60
2022-09-14T22:41:22.069Z,3.15
2022-09-14T22:43:49.644Z,4.93
2022-09-14T22:46:17.230Z,2.83
2022-09-14T22:48:45.304Z,5.70
2022-09-14T22:51:15.031Z,2.75
2022-09-14T22:53:42.559Z,5.22
2022-09-14T22:56:31.248Z,3.10
2022-09-14T22:58:59.145Z,2.72
2022-09-14T23:01:32.957Z,6.22
2022-09-14T23:04:03.535Z,4.70
2022-09-14T23:06:34.183Z,4.18
2022-09-14T23:09:01.671Z,3.40
2022-09-14T23:11:29.332Z,5.75
2022-09-14T23:13:58.726Z,3.28
2022-09-14T23:18:57.037Z,1.92
2022-09-14T23:21:24.959Z,3.38
2022-09-14T23:23:56.984Z,4.60
2022-09-14T23:26:24.819Z,3.15
2022-09-14T23:29:03.255Z,2.85
2022-09-14T23:31:32.061Z,5.03
2022-09-14T23:34:00.606Z,3.17
2022-09-14T23:36:28.288Z,2.27
2022-09-14T23:38:56.012Z,1.95
2022-09-14T23:41:25.366Z,4.00
2022-09-14T23:46:20.281Z,5.88
2022-09-14T23:48:47.415Z,2.90
2022-09-14T23:51:15.087Z,1.92
2022-09-14T23:53:43.050Z,2.67
2022-09-14T23:56:10.874Z,2.85
2022-09-14T23:58:38.255Z,4.63
